createdAt,value
2018-12-06T00:01:14.886Z,23.60
2018-12-06T00:03:42.502Z,24.10
2018-12-06T00:06:10.095Z,27.23
2018-12-06T00:08:37.707Z,24.43
2018-12-06T00:11:05.295Z,20.77
2018-12-06T00:13:32.832Z,20.23
2018-12-06T00:16:00.440Z,31.33
2018-12-06T00:18:28.053Z,19.53
2018-12-06T00:20:55.928Z,17.90
2018-12-06T00:23:23.502Z,24.97
2018-12-06T00:25:51.175Z,38.03
2018-12-06T00:28:19.095Z,28.67
2018-12-06T00:30:46.692Z,18.73
2018-12-06T00:33:14.297Z,20.23
2018-12-06T00:35:41.910Z,22.27
2018-12-06T00:38:09.453Z,26.57
2018-12-06T00:40:37.048Z,22.77
2018-12-06T00:43:04.643Z,20.90
2018-12-06T00:45:32.556Z,21.30
2018-12-06T00:48:00.395Z,22.30
2018-12-06T00:50:28.002Z,20.03
2018-12-06T00:52:55.545Z,31.03
2018-12-06T00:55:23.279Z,24.63
2018-12-06T00:57:51.165Z,21.70
2018-12-06T01:00:18.867Z,15.77
2018-12-06T01:02:46.426Z,19.43
2018-12-06T01:05:14.052Z,29.93
2018-12-06T01:07:41.595Z,18.97
2018-12-06T01:10:09.315Z,16.87
2018-12-06T01:12:37.060Z,19.20
2018-12-06T01:15:05.253Z,22.97
2018-12-06T01:17:32.894Z,19.73
2018-12-06T01:20:00.498Z,27.97
2018-12-06T01:22:28.091Z,28.10
2018-12-06T01:24:55.677Z,20.83
2018-12-06T01:27:23.297Z,22.30
2018-12-06T01:29:50.841Z,22.23
2018-12-06T01:32:18.439Z,21.10
2018-12-06T01:34:46.122Z,20.07
2018-12-06T01:37:13.694Z,19.87
2018-12-06T01:39:41.266Z,23.97
2018-12-06T01:42:08.829Z,20.20
2018-12-06T01:44:36.432Z,35.33
2018-12-06T01:47:04.060Z,22.60
2018-12-06T01:49:31.858Z,25.63
2018-12-06T01:51:59.459Z,22.40
2018-12-06T01:54:27.026Z,28.67
2018-12-06T01:56:54.606Z,19.67
2018-12-06T01:59:22.231Z,20.10
2018-12-06T02:01:49.859Z,17.40
2018-12-06T02:04:17.441Z,26.07
2018-12-06T02:06:45.304Z,26.30
2018-12-06T02:09:12.887Z,31.97
2018-12-06T02:11:40.649Z,22.63
2018-12-06T02:14:08.317Z,21.80
2018-12-06T02:16:35.912Z,22.67
2018-12-06T02:19:03.452Z,17.43
2018-12-06T02:21:31.008Z,29.93
2018-12-06T02:23:58.589Z,27.43
2018-12-06T02:26:26.182Z,23.67
2018-12-06T02:28:53.744Z,24.63
2018-12-06T02:31:21.320Z,17.87
2018-12-06T02:33:49.205Z,25.47
2018-12-06T02:36:17.043Z,30.10
2018-12-06T02:38:44.688Z,19.37
2018-12-06T02:41:12.279Z,19.97
2018-12-06T02:43:40.152Z,25.13
2018-12-06T02:46:07.767Z,20.73
2018-12-06T02:48:35.416Z,25.80
2018-12-06T02:51:02.989Z,33.00
2018-12-06T02:53:30.915Z,25.90
2018-12-06T02:55:58.468Z,18.47
2018-12-06T02:58:26.054Z,27.00
2018-12-06T03:00:53.631Z,23.33
2018-12-06T03:03:21.189Z,24.87
2018-12-06T03:05:48.763Z,21.50
2018-12-06T03:08:16.361Z,19.03
2018-12-06T03:10:43.914Z,20.93
2018-12-06T03:13:11.553Z,15.70
2018-12-06T03:15:39.095Z,33.20
2018-12-06T03:18:06.763Z,20.43
2018-12-06T03:20:34.405Z,24.40
2018-12-06T03:23:01.999Z,30.97
2018-12-06T03:25:29.568Z,32.87
2018-12-06T03:27:57.178Z,19.40
2018-12-06T03:30:24.743Z,18.57
2018-12-06T03:32:52.387Z,21.23
2018-12-06T03:35:20.281Z,27.80
2018-12-06T03:37:47.851Z,18.13
2018-12-06T03:40:15.390Z,24.13
2018-12-06T03:42:43.015Z,22.77
2018-12-06T03:45:10.785Z,20.63
2018-12-06T03:47:38.368Z,20.10
2018-12-06T03:50:06.053Z,20.90
2018-12-06T03:52:33.919Z,23.87
2018-12-06T03:55:02.191Z,20.83
2018-12-06T03:57:29.750Z,20.00
2018-12-06T03:59:57.311Z,20.10
2018-12-06T04:02:24.926Z,24.53
2018-12-06T04:04:52.527Z,23.73
2018-12-06T04:07:20.388Z,20.43
2018-12-06T04:09:48.275Z,25.47
2018-12-06T04:12:15.881Z,23.13
2018-12-06T04:14:43.428Z,23.97
2018-12-06T04:17:11.049Z,20.20
2018-12-06T04:19:38.625Z,24.63
2018-12-06T04:22:06.188Z,22.40
2018-12-06T04:24:33.760Z,21.37
2018-12-06T04:27:01.387Z,21.63
2018-12-06T04:29:28.986Z,27.80
2018-12-06T04:31:56.580Z,17.83
2018-12-06T04:34:24.159Z,20.80
2018-12-06T04:36:51.794Z,17.07
2018-12-06T04:39:19.387Z,14.50
2018-12-06T04:41:47.133Z,16.97
2018-12-06T04:44:15.137Z,21.47
2018-12-06T04:46:42.755Z,24.80
2018-12-06T04:49:10.360Z,26.40
2018-12-06T04:51:38.976Z,15.27
2018-12-06T04:54:06.568Z,16.10
2018-12-06T04:56:34.151Z,21.63
2018-12-06T04:59:01.725Z,23.83
2018-12-06T05:01:29.294Z,14.00
2018-12-06T05:03:57.000Z,24.13
2018-12-06T05:06:24.935Z,18.83
2018-12-06T05:08:52.555Z,20.30
2018-12-06T05:11:20.167Z,23.20
2018-12-06T05:13:47.777Z,21.77
2018-12-06T05:16:15.334Z,21.47
2018-12-06T05:18:42.925Z,19.43
2018-12-06T05:21:10.548Z,13.87
2018-12-06T05:23:38.235Z,19.00
2018-12-06T05:26:05.854Z,16.03
2018-12-06T05:28:33.523Z,18.20
2018-12-06T05:31:01.156Z,19.63
2018-12-06T05:33:28.798Z,19.37
2018-12-06T05:35:56.353Z,18.77
2018-12-06T05:38:23.934Z,15.70
2018-12-06T05:40:51.830Z,23.53
2018-12-06T05:43:19.470Z,21.17
2018-12-06T05:45:47.113Z,22.20
2018-12-06T05:48:15.188Z,25.63
2018-12-06T05:50:42.785Z,21.57
2018-12-06T05:53:10.406Z,23.83
2018-12-06T05:55:38.074Z,29.43
2018-12-06T05:58:05.712Z,20.33
2018-12-06T06:00:33.448Z,17.23
2018-12-06T06:03:01.062Z,24.60
2018-12-06T06:05:28.653Z,25.00
2018-12-06T06:07:56.282Z,25.93
2018-12-06T06:10:23.844Z,21.13
2018-12-06T06:12:51.453Z,18.27
2018-12-06T06:15:19.025Z,17.50
2018-12-06T06:17:46.621Z,17.23
2018-12-06T06:20:14.201Z,20.03
2018-12-06T06:22:41.915Z,17.50
2018-12-06T06:25:09.582Z,17.60
2018-12-06T06:27:37.193Z,18.40
2018-12-06T06:30:06.218Z,21.80
2018-12-06T06:32:33.791Z,20.17
2018-12-06T06:35:01.437Z,16.00
2018-12-06T06:37:29.114Z,22.13
2018-12-06T06:39:56.707Z,20.70
2018-12-06T06:42:24.327Z,19.13
2018-12-06T06:44:51.881Z,16.10
2018-12-06T06:47:19.482Z,20.73
2018-12-06T06:49:47.046Z,18.50
2018-12-06T06:52:14.642Z,20.10
2018-12-06T06:54:42.522Z,15.40
2018-12-06T06:57:10.316Z,13.50
2018-12-06T06:59:38.250Z,17.77
2018-12-06T07:02:06.187Z,14.77
2018-12-06T07:04:33.826Z,15.93
2018-12-06T07:07:01.436Z,16.03
2018-12-06T07:09:29.029Z,17.97
2018-12-06T07:11:56.754Z,36.30
2018-12-06T07:14:24.339Z,27.17
2018-12-06T07:16:52.049Z,20.23
2018-12-06T07:19:19.643Z,24.57
2018-12-06T07:21:47.311Z,22.80
2018-12-06T07:24:14.932Z,17.13
2018-12-06T07:26:42.522Z,16.57
2018-12-06T07:29:10.186Z,16.60
2018-12-06T07:31:37.807Z,30.37
2018-12-06T07:34:05.388Z,13.43
2018-12-06T07:36:32.982Z,22.63
2018-12-06T07:39:00.626Z,55.33
2018-12-06T07:41:28.202Z,18.97
2018-12-06T07:43:55.804Z,19.63
2018-12-06T07:46:23.388Z,21.47
2018-12-06T07:48:51.005Z,17.20
2018-12-06T07:51:18.570Z,16.57
2018-12-06T07:53:46.529Z,19.37
2018-12-06T07:56:14.131Z,19.10
2018-12-06T07:58:41.733Z,21.33
2018-12-06T08:01:09.688Z,19.50
2018-12-06T08:03:37.338Z,22.20
2018-12-06T08:06:05.091Z,16.57
2018-12-06T08:08:32.679Z,17.50
2018-12-06T08:11:00.293Z,21.27
2018-12-06T08:13:27.934Z,15.47
2018-12-06T08:15:55.512Z,19.03
2018-12-06T08:18:23.106Z,16.70
2018-12-06T08:20:50.654Z,18.93
2018-12-06T08:23:18.315Z,15.47
2018-12-06T08:25:45.939Z,13.53
2018-12-06T08:28:13.589Z,21.00
2018-12-06T08:30:42.132Z,14.63
2018-12-06T08:33:10.274Z,22.27
2018-12-06T08:35:37.942Z,22.60
2018-12-06T08:38:05.721Z,17.83
2018-12-06T08:40:33.369Z,17.70
2018-12-06T08:43:01.007Z,21.60
2018-12-06T08:45:28.665Z,17.57
2018-12-06T08:47:56.235Z,18.90
2018-12-06T08:50:23.818Z,17.73
2018-12-06T08:52:51.461Z,32.43
2018-12-06T08:55:19.053Z,17.73
2018-12-06T08:57:46.646Z,19.60
2018-12-06T09:00:14.218Z,22.50
2018-12-06T09:02:42.041Z,19.60
2018-12-06T09:05:09.662Z,14.50
2018-12-06T09:07:37.223Z,20.90
2018-12-06T09:10:06.215Z,24.10
2018-12-06T09:12:33.848Z,16.67
2018-12-06T09:15:01.562Z,26.13
2018-12-06T09:17:29.121Z,18.20
2018-12-06T09:19:56.703Z,16.23
2018-12-06T09:22:24.524Z,15.90
2018-12-06T09:24:52.295Z,18.60
2018-12-06T09:27:19.902Z,14.47
2018-12-06T09:29:47.487Z,15.67
2018-12-06T09:32:15.092Z,17.03
2018-12-06T09:34:42.690Z,15.00
2018-12-06T09:37:10.291Z,16.93
2018-12-06T09:39:37.893Z,40.10
2018-12-06T09:42:05.553Z,18.27
2018-12-06T09:44:33.142Z,29.77
2018-12-06T09:47:00.975Z,17.77
2018-12-06T09:49:28.605Z,15.23
2018-12-06T09:51:56.536Z,22.27
2018-12-06T09:54:24.102Z,17.87
2018-12-06T09:56:51.735Z,20.53
2018-12-06T09:59:19.308Z,17.23
2018-12-06T10:01:46.940Z,18.30
2018-12-06T10:04:14.715Z,16.00
2018-12-06T10:06:42.343Z,19.67
2018-12-06T10:09:09.900Z,14.13
2018-12-06T10:11:37.477Z,28.17
2018-12-06T10:14:05.052Z,14.93
2018-12-06T10:16:32.682Z,16.40
2018-12-06T10:19:00.401Z,15.97
2018-12-06T10:21:28.006Z,14.30
2018-12-06T10:23:55.564Z,16.80
2018-12-06T10:26:23.162Z,15.60
2018-12-06T10:28:50.735Z,13.50
2018-12-06T10:31:18.448Z,15.47
2018-12-06T10:33:45.992Z,20.93
2018-12-06T10:36:13.614Z,20.70
2018-12-06T10:38:41.202Z,17.20
2018-12-06T10:41:08.803Z,19.73
2018-12-06T10:43:36.406Z,17.60
2018-12-06T10:46:04.174Z,15.07
2018-12-06T10:48:31.768Z,15.70
2018-12-06T10:51:11.337Z,13.03
2018-12-06T10:53:38.971Z,13.50
2018-12-06T10:56:06.575Z,14.33
2018-12-06T10:58:34.127Z,13.07
2018-12-06T11:01:08.457Z,17.17
2018-12-06T11:03:38.346Z,16.43
2018-12-06T11:06:05.969Z,18.97
2018-12-06T11:08:33.526Z,20.53
2018-12-06T11:11:01.102Z,25.53
2018-12-06T11:13:28.675Z,18.23
2018-12-06T11:15:56.314Z,16.50
2018-12-06T11:18:24.196Z,16.00
2018-12-06T11:21:18.941Z,16.93
2018-12-06T11:23:47.726Z,14.13
2018-12-06T11:26:15.465Z,17.03
2018-12-06T11:28:43.018Z,17.90
2018-12-06T11:31:10.867Z,19.47
2018-12-06T11:33:38.426Z,18.03
2018-12-06T11:36:05.998Z,20.33
2018-12-06T11:38:33.660Z,16.90
2018-12-06T11:41:01.313Z,15.07
2018-12-06T11:43:28.976Z,14.53
2018-12-06T11:45:56.892Z,30.37
2018-12-06T11:48:27.016Z,16.07
2018-12-06T11:50:54.217Z,17.93
2018-12-06T11:53:22.072Z,18.00
2018-12-06T11:55:49.659Z,17.97
2018-12-06T11:58:17.243Z,22.37
2018-12-06T12:00:44.867Z,17.43
2018-12-06T12:03:12.427Z,15.90
2018-12-06T12:05:40.068Z,18.83
2018-12-06T12:08:07.664Z,22.63
2018-12-06T12:10:35.624Z,30.97
2018-12-06T12:13:03.273Z,22.97
2018-12-06T12:15:31.369Z,21.87
2018-12-06T12:17:59.016Z,13.47
2018-12-06T12:20:26.699Z,19.57
2018-12-06T12:22:54.448Z,17.90
2018-12-06T12:25:22.040Z,18.37
2018-12-06T12:27:49.588Z,18.13
2018-12-06T12:30:17.180Z,17.87
2018-12-06T12:32:44.794Z,16.40
2018-12-06T12:35:12.372Z,19.50
2018-12-06T12:37:39.929Z,16.60
2018-12-06T12:40:09.415Z,19.90
2018-12-06T12:42:37.295Z,14.90
2018-12-06T12:45:06.226Z,27.50
2018-12-06T12:47:34.059Z,23.07
2018-12-06T12:50:01.698Z,22.23
2018-12-06T12:52:29.350Z,21.10
2018-12-06T12:54:56.938Z,18.60
2018-12-06T12:57:24.504Z,22.77
2018-12-06T12:59:52.141Z,18.70
2018-12-06T13:02:19.730Z,18.00
2018-12-06T13:04:47.374Z,20.13
2018-12-06T13:07:15.052Z,17.07
2018-12-06T13:09:42.695Z,21.00
2018-12-06T13:12:10.379Z,23.33
2018-12-06T13:14:37.998Z,26.63
2018-12-06T13:17:05.611Z,16.40
2018-12-06T13:19:33.192Z,18.27
2018-12-06T13:22:00.993Z,19.53
2018-12-06T13:24:28.599Z,17.73
2018-12-06T13:26:56.250Z,29.43
2018-12-06T13:29:23.888Z,15.33
2018-12-06T13:31:51.456Z,18.70
2018-12-06T13:34:19.042Z,21.13
2018-12-06T13:36:46.632Z,18.00
2018-12-06T13:39:14.219Z,17.93
2018-12-06T13:41:41.799Z,20.53
2018-12-06T13:44:09.444Z,20.23
2018-12-06T13:46:37.569Z,23.23
2018-12-06T13:49:05.167Z,32.43
2018-12-06T13:51:33.286Z,26.33
2018-12-06T13:54:01.059Z,16.03
2018-12-06T13:56:28.668Z,19.53
2018-12-06T13:58:56.260Z,20.40
2018-12-06T14:01:24.004Z,18.73
2018-12-06T14:03:51.868Z,21.60
2018-12-06T14:06:19.467Z,18.93
2018-12-06T14:08:47.055Z,21.73
2018-12-06T14:11:15.009Z,18.30
2018-12-06T14:13:42.579Z,23.50
2018-12-06T14:16:10.565Z,21.90
2018-12-06T14:18:38.921Z,22.20
2018-12-06T14:21:06.521Z,25.73
2018-12-06T14:23:34.146Z,22.10
2018-12-06T14:26:01.827Z,23.93
2018-12-06T14:28:29.417Z,22.83
2018-12-06T14:30:57.076Z,20.50
2018-12-06T14:33:24.695Z,19.37
2018-12-06T14:35:52.401Z,29.60
2018-12-06T14:38:20.176Z,38.23
2018-12-06T14:40:47.760Z,23.97
2018-12-06T14:43:15.657Z,28.10
2018-12-06T14:45:43.440Z,23.83
2018-12-06T14:48:11.277Z,21.40
2018-12-06T14:50:38.871Z,26.70
2018-12-06T14:53:06.451Z,22.93
2018-12-06T14:55:34.586Z,22.17
2018-12-06T14:58:02.182Z,21.13
2018-12-06T15:00:29.827Z,21.13
2018-12-06T15:02:57.593Z,26.20
2018-12-06T15:05:25.168Z,25.07
2018-12-06T15:07:52.909Z,46.97
2018-12-06T15:10:20.467Z,18.70
2018-12-06T15:12:48.043Z,20.70
2018-12-06T15:15:15.643Z,20.63
2018-12-06T15:17:43.217Z,22.57
2018-12-06T15:20:10.772Z,19.30
2018-12-06T15:22:38.401Z,19.43
2018-12-06T15:25:06.628Z,20.80
2018-12-06T15:27:34.815Z,24.07
2018-12-06T15:30:02.430Z,24.30
2018-12-06T15:32:30.051Z,24.23
2018-12-06T15:34:57.689Z,29.13
2018-12-06T15:37:25.242Z,20.97
2018-12-06T15:39:52.847Z,22.30
2018-12-06T15:42:20.498Z,19.80
2018-12-06T15:44:48.091Z,25.37
2018-12-06T15:47:15.731Z,28.30
2018-12-06T15:49:43.364Z,24.13
2018-12-06T15:52:11.028Z,29.87
2018-12-06T15:54:38.920Z,20.80
2018-12-06T15:57:06.516Z,26.83
2018-12-06T15:59:34.157Z,26.60
2018-12-06T16:02:01.763Z,37.70
2018-12-06T16:04:29.449Z,23.83
2018-12-06T16:06:57.031Z,24.90
2018-12-06T16:09:24.687Z,53.90
2018-12-06T16:11:52.306Z,23.30
2018-12-06T16:14:19.888Z,32.03
2018-12-06T16:16:47.607Z,29.80
2018-12-06T16:19:15.417Z,23.70
2018-12-06T16:21:43.060Z,36.73
2018-12-06T16:24:10.873Z,29.20
2018-12-06T16:26:38.502Z,31.63
2018-12-06T16:29:06.115Z,26.37
2018-12-06T16:31:33.755Z,29.57
2018-12-06T16:34:01.420Z,42.13
2018-12-06T16:36:29.048Z,30.77
2018-12-06T16:38:57.066Z,27.53
2018-12-06T16:41:24.664Z,27.50
2018-12-06T16:43:52.399Z,36.80
2018-12-06T16:46:20.054Z,36.40
2018-12-06T16:48:47.713Z,36.20
2018-12-06T16:51:15.354Z,37.70
2018-12-06T16:53:43.031Z,35.90
2018-12-06T16:56:10.616Z,32.77
2018-12-06T16:58:38.214Z,40.83
2018-12-06T17:01:05.828Z,34.00
2018-12-06T17:03:33.486Z,30.37
2018-12-06T17:06:01.350Z,27.80
2018-12-06T17:08:29.237Z,40.03
2018-12-06T17:10:56.862Z,34.90
2018-12-06T17:13:24.423Z,44.00
2018-12-06T17:15:52.042Z,35.70
2018-12-06T17:18:19.631Z,47.33
2018-12-06T17:20:47.279Z,40.27
2018-12-06T17:23:14.902Z,37.97
2018-12-06T17:25:42.519Z,35.67
2018-12-06T17:28:10.100Z,38.30
2018-12-06T17:30:37.801Z,32.80
2018-12-06T17:33:05.468Z,37.50
2018-12-06T17:35:33.185Z,38.53
2018-12-06T17:38:00.795Z,36.40
2018-12-06T17:40:28.347Z,37.73
2018-12-06T17:42:55.972Z,37.30
2018-12-06T17:45:23.712Z,35.67
2018-12-06T17:47:51.633Z,45.97
2018-12-06T17:50:19.269Z,37.73
2018-12-06T17:52:46.921Z,34.87
2018-12-06T17:55:14.618Z,38.73
2018-12-06T17:57:42.306Z,51.03
2018-12-06T18:00:11.992Z,37.07
2018-12-06T18:02:39.615Z,38.17
2018-12-06T18:05:07.306Z,32.47
2018-12-06T18:07:34.901Z,38.60
2018-12-06T18:10:02.637Z,34.07
2018-12-06T18:12:30.683Z,35.33
2018-12-06T18:14:59.010Z,37.87
2018-12-06T18:17:26.667Z,40.33
2018-12-06T18:19:54.381Z,32.90
2018-12-06T18:22:22.296Z,41.30
2018-12-06T18:24:50.124Z,33.70
2018-12-06T18:27:17.813Z,43.10
2018-12-06T18:29:45.496Z,37.60
2018-12-06T18:32:13.188Z,36.67
2018-12-06T18:34:41.450Z,35.47
2018-12-06T18:37:09.262Z,36.60
2018-12-06T18:39:36.882Z,34.50
2018-12-06T18:42:04.745Z,35.10
2018-12-06T18:44:32.557Z,30.40
2018-12-06T18:47:00.247Z,35.80
2018-12-06T18:49:27.952Z,44.70
2018-12-06T18:51:55.840Z,32.83
2018-12-06T18:54:23.783Z,36.37
2018-12-06T18:56:51.462Z,40.60
2018-12-06T18:59:19.078Z,38.33
2018-12-06T19:01:46.829Z,35.63
2018-12-06T19:04:14.884Z,40.03
2018-12-06T19:06:42.738Z,34.30
2018-12-06T19:09:10.551Z,35.87
2018-12-06T19:11:38.208Z,34.73
2018-12-06T19:14:05.851Z,39.80
2018-12-06T19:16:33.697Z,37.80
2018-12-06T19:19:01.605Z,40.50
2018-12-06T19:21:29.322Z,38.10
2018-12-06T19:23:56.999Z,41.10
2018-12-06T19:26:24.573Z,34.67
2018-12-06T19:28:52.215Z,42.03
2018-12-06T19:31:19.759Z,35.03
2018-12-06T19:33:47.336Z,37.20
2018-12-06T19:36:15.029Z,34.43
2018-12-06T19:38:43.015Z,38.33
2018-12-06T19:41:10.654Z,41.17
2018-12-06T19:43:38.379Z,42.33
2018-12-06T19:46:06.014Z,39.47
2018-12-06T19:48:33.613Z,38.00
2018-12-06T19:51:01.458Z,43.50
2018-12-06T19:53:29.143Z,39.03
2018-12-06T19:55:56.757Z,37.37
2018-12-06T19:58:24.376Z,34.27
2018-12-06T20:00:52.404Z,43.83
2018-12-06T20:03:20.114Z,31.03
2018-12-06T20:05:47.755Z,36.00
2018-12-06T20:08:15.393Z,37.07
2018-12-06T20:10:42.993Z,35.70
2018-12-06T20:13:10.821Z,38.10
2018-12-06T20:15:38.574Z,39.03
2018-12-06T20:18:06.192Z,35.53
2018-12-06T20:20:34.040Z,36.27
2018-12-06T20:23:01.772Z,35.60
2018-12-06T20:25:29.366Z,42.30
2018-12-06T20:27:57.073Z,37.50
2018-12-06T20:30:24.704Z,41.60
2018-12-06T20:32:52.311Z,37.20
2018-12-06T20:35:20.333Z,38.00
2018-12-06T20:37:47.992Z,39.07
2018-12-06T20:40:15.700Z,38.93
2018-12-06T20:42:43.293Z,42.93
2018-12-06T20:45:10.879Z,48.13
2018-12-06T20:47:38.664Z,45.57
2018-12-06T20:50:06.385Z,47.90
2018-12-06T20:52:34.045Z,54.00
2018-12-06T20:55:01.611Z,45.57
2018-12-06T20:57:36.782Z,45.60
2018-12-06T20:59:58.946Z,44.50
2018-12-06T21:02:27.154Z,57.53
2018-12-06T21:04:54.921Z,49.70
2018-12-06T21:07:22.507Z,42.33
2018-12-06T21:09:50.394Z,48.67
2018-12-06T21:12:18.045Z,48.30
2018-12-06T21:14:45.681Z,46.70
2018-12-06T21:17:13.311Z,48.40
2018-12-06T21:19:40.873Z,47.90
2018-12-06T21:22:08.503Z,46.97
2018-12-06T21:24:36.130Z,50.50
2018-12-06T21:27:03.758Z,41.53
2018-12-06T21:29:31.586Z,40.77
2018-12-06T21:31:59.180Z,44.73
2018-12-06T21:34:26.764Z,46.17
2018-12-06T21:36:54.330Z,39.70
2018-12-06T21:39:22.035Z,40.40
2018-12-06T21:41:49.634Z,42.07
2018-12-06T21:44:17.277Z,44.40
2018-12-06T21:46:44.996Z,57.20
2018-12-06T21:49:12.705Z,47.83
2018-12-06T21:51:40.381Z,44.07
2018-12-06T21:54:08.273Z,54.23
2018-12-06T21:56:36.047Z,44.60
2018-12-06T21:59:03.628Z,50.20
2018-12-06T22:01:31.249Z,46.70
2018-12-06T22:03:59.032Z,53.20
2018-12-06T22:06:26.944Z,42.40
2018-12-06T22:08:54.893Z,48.90
2018-12-06T22:11:22.803Z,51.60
2018-12-06T22:13:50.590Z,47.20
2018-12-06T22:16:18.319Z,52.53
2018-12-06T22:18:46.159Z,44.73
2018-12-06T22:21:14.001Z,41.80
2018-12-06T22:23:41.637Z,49.93
2018-12-06T22:26:09.222Z,43.77
2018-12-06T22:28:36.854Z,49.10
2018-12-06T22:31:05.015Z,42.13
2018-12-06T22:33:33.055Z,43.90
2018-12-06T22:36:00.897Z,46.87
2018-12-06T22:38:34.105Z,42.57
2018-12-06T22:40:58.218Z,50.40
2018-12-06T22:43:25.760Z,46.20
2018-12-06T22:45:55.104Z,44.00
2018-12-06T22:48:23.324Z,44.33
2018-12-06T22:50:50.977Z,41.20
2018-12-06T22:53:18.575Z,48.80
2018-12-06T22:55:46.170Z,46.20
2018-12-06T22:58:13.723Z,44.50
2018-12-06T23:00:43.599Z,40.40
2018-12-06T23:03:11.293Z,38.83
2018-12-06T23:05:38.918Z,36.47
2018-12-06T23:08:06.978Z,46.33
2018-12-06T23:10:35.683Z,43.57
2018-12-06T23:13:03.397Z,39.30
2018-12-06T23:15:31.010Z,42.30
2018-12-06T23:17:58.957Z,33.83
2018-12-06T23:20:26.818Z,36.13
2018-12-06T23:22:54.405Z,38.67
2018-12-06T23:25:22.253Z,38.57
2018-12-06T23:27:49.833Z,37.90
2018-12-06T23:30:17.420Z,35.87
2018-12-06T23:32:45.037Z,39.50
2018-12-06T23:35:13.222Z,36.17
2018-12-06T23:37:40.830Z,35.87
2018-12-06T23:40:08.439Z,42.53
2018-12-06T23:42:36.077Z,33.00
2018-12-06T23:45:04.596Z,36.47
2018-12-06T23:47:32.187Z,34.20
2018-12-06T23:49:59.735Z,35.17
2018-12-06T23:52:27.477Z,31.27
2018-12-06T23:54:55.123Z,31.33
2018-12-06T23:57:22.704Z,36.70
2018-12-06T23:59:50.566Z,31.80
